Time;durP1;ratioP1;P1;durP2;ratioP2;P2;SDS_P1;SDS_P2;PMS_P1;PMS_P2;Temp;Humidity;BMP_temperature;BMP_pressure;BME280_temperature;BME280_humidity;BME280_pressure;Samples;Min_cycle;Max_cycle;Signal;HPM_P1;HPM_P2
2023/07/31 00:02:02;;;;;;;4.10;3.10;;;14.00;99.90;;;;;;8239173;28;20191;-61
2023/07/31 00:06:03;;;;;;;3.97;2.97;;;14.00;99.90;;;;;;8241005;28;20188;-64
2023/07/31 00:10:04;;;;;;;7.17;3.17;;;14.00;99.90;;;;;;8233329;28;20239;-63
2023/07/31 00:14:04;;;;;;;4.73;2.60;;;13.90;99.90;;;;;;8236880;28;20221;-61
2023/07/31 00:18:05;;;;;;;6.87;3.10;;;14.00;99.90;;;;;;8238348;28;20234;-61
2023/07/31 00:22:06;;;;;;;5.17;2.80;;;13.90;99.90;;;;;;8240066;28;20259;-61
2023/07/31 00:26:07;;;;;;;6.97;3.10;;;13.90;99.90;;;;;;8239022;28;20206;-61
2023/07/31 00:30:08;;;;;;;5.10;3.70;;;13.90;99.90;;;;;;8244539;28;20626;-61
2023/07/31 00:34:08;;;;;;;6.10;2.77;;;13.90;99.90;;;;;;8237499;28;20185;-63
2023/07/31 00:38:09;;;;;;;4.50;2.83;;;13.90;99.90;;;;;;8242337;28;20189;-60
2023/07/31 00:42:10;;;;;;;5.97;3.07;;;13.90;99.90;;;;;;8237682;28;20239;-63
2023/07/31 00:46:11;;;;;;;6.60;3.10;;;13.90;99.90;;;;;;8241028;28;20187;-61
2023/07/31 00:50:12;;;;;;;4.27;3.10;;;13.80;99.90;;;;;;8237542;28;21618;-59
2023/07/31 00:54:13;;;;;;;3.37;2.73;;;13.80;99.90;;;;;;8234650;28;20194;-63
2023/07/31 00:58:14;;;;;;;7.53;3.10;;;13.70;99.90;;;;;;8237933;28;20282;-62
2023/07/31 01:02:15;;;;;;;5.37;3.60;;;13.70;99.90;;;;;;8240846;28;20282;-61
2023/07/31 01:06:25;;;;;;;7.90;3.33;;;13.70;99.90;;;;;;8236483;28;20267;-62
2023/07/31 01:10:48;;;;;;;7.10;3.80;;;13.70;99.90;;;;;;8237720;28;20221;-62
2023/07/31 01:15:04;;;;;;;5.50;2.97;;;13.80;99.90;;;;;;8234537;28;20196;-61
2023/07/31 01:19:07;;;;;;;5.27;3.23;;;13.90;99.90;;;;;;8231491;28;20188;-70
2023/07/31 01:23:29;;;;;;;7.47;3.27;;;13.90;99.90;;;;;;8237892;28;20361;-68
2023/07/31 01:27:35;;;;;;;4.40;3.10;;;13.80;99.90;;;;;;8233900;28;20188;-67
2023/07/31 01:31:38;;;;;;;4.97;3.10;;;13.70;99.90;;;;;;8243653;28;20277;-67
2023/07/31 01:35:39;;;;;;;3.87;3.00;;;13.60;99.90;;;;;;8233591;28;20212;-69
2023/07/31 01:39:40;;;;;;;5.97;3.47;;;13.50;99.90;;;;;;8236976;28;20219;-68
2023/07/31 01:43:41;;;;;;;4.40;3.10;;;13.40;99.90;;;;;;8234205;28;20196;-69
2023/07/31 01:47:41;;;;;;;5.80;3.37;;;13.40;99.90;;;;;;8235069;28;20201;-68
2023/07/31 01:51:42;;;;;;;5.80;3.13;;;13.40;99.90;;;;;;8237636;28;20218;-69
2023/07/31 01:55:43;;;;;;;7.70;3.30;;;13.30;99.90;;;;;;8234540;28;20355;-67
2023/07/31 01:59:44;;;;;;;4.93;3.10;;;13.30;99.90;;;;;;8235544;28;20195;-65
2023/07/31 02:03:44;;;;;;;6.50;2.93;;;13.20;99.90;;;;;;8236358;28;20194;-67
2023/07/31 02:07:45;;;;;;;9.50;3.63;;;13.20;99.90;;;;;;8232439;28;20201;-66
2023/07/31 02:11:46;;;;;;;3.90;2.97;;;13.20;99.90;;;;;;8236878;28;20222;-66
2023/07/31 02:15:48;;;;;;;6.37;3.33;;;13.20;99.90;;;;;;8241144;28;20556;-69
2023/07/31 02:19:49;;;;;;;11.07;4.03;;;13.20;99.90;;;;;;8235007;28;20189;-67
2023/07/31 02:23:49;;;;;;;4.73;2.93;;;13.30;99.90;;;;;;8229413;28;20214;-69
2023/07/31 02:27:50;;;;;;;7.07;3.37;;;13.20;99.90;;;;;;8239746;28;20585;-60
2023/07/31 02:31:51;;;;;;;5.70;3.37;;;13.30;99.90;;;;;;8240240;28;20220;-62
2023/07/31 02:35:51;;;;;;;5.57;3.07;;;13.20;99.90;;;;;;8232659;28;20198;-62
2023/07/31 02:39:52;;;;;;;6.53;3.17;;;13.10;99.90;;;;;;8242287;28;20627;-64
2023/07/31 02:43:53;;;;;;;10.93;3.73;;;13.00;99.90;;;;;;8240871;28;20199;-64
2023/07/31 02:47:53;;;;;;;5.53;3.60;;;13.00;99.90;;;;;;8237107;28;20238;-62
2023/07/31 02:51:54;;;;;;;6.60;3.27;;;13.00;99.90;;;;;;8228009;28;20281;-61
2023/07/31 02:55:55;;;;;;;5.77;3.20;;;13.00;99.90;;;;;;8238419;28;20200;-61
2023/07/31 02:59:55;;;;;;;4.13;3.70;;;13.00;99.90;;;;;;8235951;28;20205;-63
2023/07/31 03:03:56;;;;;;;7.33;3.70;;;13.00;99.90;;;;;;8233004;28;20209;-62
2023/07/31 03:07:57;;;;;;;8.80;3.80;;;13.00;99.90;;;;;;8232915;28;20191;-60
2023/07/31 03:11:58;;;;;;;7.07;3.90;;;13.10;99.90;;;;;;8244013;28;20218;-62
2023/07/31 03:15:59;;;;;;;8.87;3.63;;;13.10;99.90;;;;;;8237311;28;20303;-61
2023/07/31 03:19:59;;;;;;;9.30;3.87;;;13.10;99.90;;;;;;8247694;28;20199;-64
2023/07/31 03:24:00;;;;;;;4.63;3.40;;;13.10;99.90;;;;;;8238875;28;20195;-60
2023/07/31 03:28:01;;;;;;;6.97;3.47;;;13.10;99.90;;;;;;8241905;28;20203;-61
2023/07/31 03:32:02;;;;;;;8.40;3.83;;;13.20;99.90;;;;;;8239204;28;20222;-61
2023/07/31 03:36:03;;;;;;;7.63;3.63;;;13.30;99.90;;;;;;8241446;28;20219;-61
2023/07/31 03:40:04;;;;;;;7.43;3.80;;;13.40;99.90;;;;;;8239419;28;20219;-72
2023/07/31 03:44:05;;;;;;;6.30;3.13;;;13.50;99.90;;;;;;8241878;28;20205;-71
2023/07/31 03:48:07;;;;;;;6.60;3.50;;;13.60;99.90;;;;;;8243350;28;20303;-69
2023/07/31 03:52:08;;;;;;;9.70;3.33;;;13.70;99.90;;;;;;8236358;28;20233;-68
2023/07/31 03:56:09;;;;;;;6.90;3.03;;;13.80;99.90;;;;;;8232637;28;20191;-71
2023/07/31 04:00:10;;;;;;;8.47;3.30;;;13.80;99.90;;;;;;8242816;28;20200;-68
2023/07/31 04:04:11;;;;;;;8.10;3.23;;;13.90;99.90;;;;;;8238223;28;20214;-65
2023/07/31 04:08:12;;;;;;;7.60;2.60;;;14.10;99.90;;;;;;8238539;28;20218;-71
2023/07/31 04:12:13;;;;;;;4.87;2.53;;;14.20;99.90;;;;;;8232554;28;20226;-68
2023/07/31 04:16:13;;;;;;;5.60;2.40;;;14.20;99.90;;;;;;8239817;28;20214;-67
2023/07/31 04:20:14;;;;;;;4.50;2.63;;;14.30;99.90;;;;;;8231148;28;20231;-71
2023/07/31 04:24:15;;;;;;;4.87;1.97;;;14.40;99.90;;;;;;8232486;28;20317;-70
2023/07/31 04:28:16;;;;;;;3.93;2.07;;;14.50;99.90;;;;;;8246054;28;20223;-67
2023/07/31 04:32:16;;;;;;;5.03;2.07;;;14.60;99.90;;;;;;8235751;28;20215;-65
2023/07/31 04:36:17;;;;;;;3.97;2.07;;;14.80;99.90;;;;;;8234549;28;20187;-70
2023/07/31 04:40:18;;;;;;;4.40;2.27;;;14.90;99.90;;;;;;8232412;28;20226;-68
2023/07/31 04:44:19;;;;;;;5.47;1.97;;;15.00;99.90;;;;;;8238315;28;20374;-66
2023/07/31 04:48:19;;;;;;;4.60;2.00;;;15.10;99.90;;;;;;8243765;28;20223;-70
2023/07/31 04:52:20;;;;;;;7.03;2.10;;;15.20;99.90;;;;;;8236688;28;20571;-70
2023/07/31 04:56:21;;;;;;;6.87;2.33;;;15.30;99.90;;;;;;8243880;28;20184;-67
2023/07/31 05:00:21;;;;;;;2.80;1.80;;;15.30;99.90;;;;;;8236597;28;20269;-70
2023/07/31 05:04:22;;;;;;;4.00;2.17;;;15.40;99.90;;;;;;8234512;28;20261;-67
2023/07/31 05:08:23;;;;;;;4.13;1.50;;;15.50;99.90;;;;;;8240610;28;20199;-69
2023/07/31 05:12:24;;;;;;;3.20;1.70;;;15.70;99.90;;;;;;8236631;28;21161;-68
2023/07/31 05:16:24;;;;;;;5.10;1.83;;;15.90;99.90;;;;;;8237942;28;20621;-69
2023/07/31 05:20:25;;;;;;;3.63;1.83;;;16.10;99.90;;;;;;8229755;28;20199;-73
2023/07/31 05:24:25;;;;;;;4.40;1.60;;;16.30;99.90;;;;;;8237304;28;20225;-67
2023/07/31 05:28:26;;;;;;;5.67;1.80;;;16.30;98.10;;;;;;8238345;28;20201;-70
2023/07/31 05:32:27;;;;;;;5.27;1.53;;;16.50;37.50;;;;;;8242771;28;20266;-68
2023/07/31 05:36:28;;;;;;;5.20;1.67;;;16.60;12.10;;;;;;8237189;28;20271;-67
2023/07/31 05:40:28;;;;;;;3.67;1.50;;;16.70;1.00;;;;;;8242610;28;20249;-70
2023/07/31 05:44:29;;;;;;;3.03;1.60;;;16.80;1.00;;;;;;8235019;28;20283;-70
2023/07/31 05:48:30;;;;;;;5.23;1.60;;;16.90;1.00;;;;;;8242537;28;20200;-70
2023/07/31 05:52:30;;;;;;;2.90;1.70;;;17.00;1.00;;;;;;8238086;28;20556;-67
2023/07/31 05:56:33;;;;;;;3.60;1.60;;;17.20;1.00;;;;;;8239962;28;20386;-67
2023/07/31 06:00:34;;;;;;;4.07;1.70;;;17.50;1.00;;;;;;8236616;28;20191;-58
2023/07/31 06:04:34;;;;;;;7.27;1.60;;;18.00;1.00;;;;;;8234052;28;20226;-61
2023/07/31 06:08:35;;;;;;;4.47;1.83;;;18.50;1.00;;;;;;8234339;28;20258;-63
2023/07/31 06:12:36;;;;;;;4.77;1.40;;;18.90;1.00;;;;;;8239256;28;20220;-61
2023/07/31 06:16:37;;;;;;;7.43;1.60;;;19.10;1.00;;;;;;8231662;28;20210;-62
2023/07/31 06:20:40;;;;;;;4.57;1.50;;;19.40;1.00;;;;;;8236125;28;20199;-62
2023/07/31 06:24:41;;;;;;;4.23;1.47;;;19.80;1.00;;;;;;8238340;28;20204;-59
2023/07/31 06:28:41;;;;;;;2.60;1.00;;;19.90;1.00;;;;;;8237383;28;20623;-60
2023/07/31 06:32:43;;;;;;;5.20;1.40;;;19.70;1.00;;;;;;8226387;28;20220;-63
2023/07/31 06:36:43;;;;;;;4.80;1.33;;;19.60;1.00;;;;;;8238873;28;20200;-62
2023/07/31 06:40:44;;;;;;;9.57;2.03;;;19.40;1.00;;;;;;8233736;28;20200;-62
2023/07/31 06:44:45;;;;;;;3.17;1.60;;;19.30;1.00;;;;;;8236688;28;20192;-63
2023/07/31 06:48:46;;;;;;;4.03;1.60;;;19.20;1.00;;;;;;8228001;28;20197;-61
2023/07/31 06:52:46;;;;;;;6.67;1.80;;;19.20;1.00;;;;;;8235329;28;20218;-63
2023/07/31 06:56:47;;;;;;;3.77;1.50;;;19.00;1.00;;;;;;8238449;28;20263;-61
2023/07/31 07:00:49;;;;;;;3.37;1.57;;;19.00;1.00;;;;;;8232995;28;20192;-64
2023/07/31 07:04:50;;;;;;;3.60;1.60;;;18.90;1.00;;;;;;8225155;28;20187;-63
2023/07/31 07:08:51;;;;;;;2.83;1.20;;;18.60;1.00;;;;;;8248332;28;20271;-62
2023/07/31 07:12:52;;;;;;;3.50;1.53;;;18.30;1.00;;;;;;8242494;28;20207;-64
2023/07/31 07:16:53;;;;;;;2.63;1.50;;;18.20;1.00;;;;;;8234007;28;20226;-63
2023/07/31 07:20:54;;;;;;;2.53;1.10;;;18.00;1.00;;;;;;8230244;28;20193;-61
2023/07/31 07:24:55;;;;;;;2.30;1.40;;;17.80;1.00;;;;;;8230136;28;20223;-61
2023/07/31 07:28:56;;;;;;;3.37;1.43;;;17.90;1.00;;;;;;8234803;28;20259;-65
2023/07/31 07:32:56;;;;;;;5.30;2.00;;;17.80;1.00;;;;;;8236954;28;20211;-64
2023/07/31 07:36:57;;;;;;;3.80;1.53;;;17.80;1.00;;;;;;8242944;28;20184;-63
2023/07/31 07:40:58;;;;;;;2.67;1.60;;;17.80;1.00;;;;;;8238257;28;20184;-62
2023/07/31 07:44:59;;;;;;;3.33;1.73;;;17.80;1.00;;;;;;8237751;28;20188;-63
2023/07/31 07:48:59;;;;;;;3.80;1.20;;;17.80;1.00;;;;;;8230871;28;20189;-64
2023/07/31 07:53:00;;;;;;;4.30;1.37;;;17.80;1.00;;;;;;8234767;28;20238;-61
2023/07/31 07:57:01;;;;;;;2.67;1.30;;;17.70;1.00;;;;;;8229419;28;20258;-61
2023/07/31 08:01:02;;;;;;;3.43;1.40;;;17.90;1.00;;;;;;8236257;28;20188;-61
2023/07/31 08:05:03;;;;;;;4.03;1.70;;;18.40;1.00;;;;;;8231913;28;20214;-61
2023/07/31 08:09:06;;;;;;;3.40;1.70;;;19.00;1.00;;;;;;8246020;28;20226;-64
2023/07/31 08:13:06;;;;;;;5.00;1.37;;;19.40;1.00;;;;;;8241139;28;20215;-61
2023/07/31 08:17:07;;;;;;;1.87;1.30;;;19.60;1.00;;;;;;8244479;28;20200;-62
2023/07/31 08:21:08;;;;;;;2.93;1.47;;;19.50;1.00;;;;;;8247909;28;20195;-62
2023/07/31 08:25:09;;;;;;;3.83;1.20;;;19.40;1.00;;;;;;8238368;28;20251;-61
2023/07/31 08:29:10;;;;;;;3.00;1.33;;;19.30;1.00;;;;;;8251497;28;20188;-62
2023/07/31 08:33:10;;;;;;;2.50;1.60;;;19.20;1.00;;;;;;8243986;28;20274;-60
2023/07/31 08:37:11;;;;;;;2.90;1.60;;;19.10;1.00;;;;;;8251422;28;20184;-61
2023/07/31 08:41:13;;;;;;;1.90;1.43;;;18.90;1.00;;;;;;8248084;28;20183;-63
2023/07/31 08:45:15;;;;;;;2.30;1.30;;;18.70;1.00;;;;;;8246974;28;20199;-62
2023/07/31 08:49:17;;;;;;;2.00;1.43;;;18.80;1.00;;;;;;8243215;28;20225;-63
2023/07/31 08:53:18;;;;;;;1.87;1.50;;;19.00;1.00;;;;;;8249836;28;20217;-63
2023/07/31 08:57:19;;;;;;;4.93;1.63;;;19.20;1.00;;;;;;8256579;28;20339;-62
2023/07/31 09:01:21;;;;;;;4.37;1.50;;;19.40;1.00;;;;;;8238076;28;20187;-62
2023/07/31 09:05:23;;;;;;;4.13;1.47;;;19.40;1.00;;;;;;8229651;28;20262;-61
2023/07/31 09:09:24;;;;;;;1.97;1.47;;;19.40;1.00;;;;;;8242952;28;20335;-63
2023/07/31 09:13:25;;;;;;;2.33;1.60;;;19.30;1.00;;;;;;8238849;28;20313;-63
2023/07/31 09:17:34;;;;;;;4.63;1.50;;;19.70;1.00;;;;;;8238729;28;20278;-63
2023/07/31 09:21:47;;;;;;;3.27;1.60;;;20.20;1.00;;;;;;8233204;28;20200;-63
2023/07/31 09:25:48;;;;;;;3.33;1.53;;;20.30;1.00;;;;;;8240789;28;20199;-63
2023/07/31 09:29:59;;;;;;;4.67;1.30;;;20.30;1.00;;;;;;8236018;28;20283;-64
2023/07/31 09:34:00;;;;;;;2.50;1.60;;;20.20;1.00;;;;;;8237347;28;20180;-64
2023/07/31 09:38:05;;;;;;;2.47;1.60;;;20.30;1.00;;;;;;8243045;28;20442;-65
2023/07/31 09:42:06;;;;;;;3.90;1.47;;;20.20;1.00;;;;;;8253078;28;20223;-65
2023/07/31 09:46:14;;;;;;;3.57;1.53;;;20.50;1.00;;;;;;8232528;28;20222;-65
2023/07/31 09:50:18;;;;;;;4.80;1.70;;;20.90;1.00;;;;;;8228754;28;20211;-65
2023/07/31 09:54:19;;;;;;;4.47;1.47;;;21.50;1.00;;;;;;8238562;28;20185;-64
2023/07/31 09:58:21;;;;;;;2.50;1.57;;;21.90;1.00;;;;;;8233484;28;20258;-64
2023/07/31 10:02:22;;;;;;;2.93;1.40;;;22.50;1.00;;;;;;8235405;28;20196;-62
2023/07/31 10:06:25;;;;;;;3.43;1.60;;;23.10;1.00;;;;;;8228804;28;20203;-66
2023/07/31 10:10:27;;;;;;;3.80;1.77;;;23.40;99.90;;;;;;8235470;28;20642;-63
2023/07/31 10:14:28;;;;;;;4.30;1.70;;;23.40;99.90;;;;;;8231850;28;20198;-66
2023/07/31 10:18:29;;;;;;;2.87;1.70;;;23.40;99.90;;;;;;8232223;28;20192;-66
2023/07/31 10:22:32;;;;;;;3.20;1.43;;;23.50;99.90;;;;;;8224115;28;20282;-64
2023/07/31 10:26:33;;;;;;;4.13;1.80;;;23.70;99.90;;;;;;8233126;28;20223;-64
2023/07/31 10:30:38;;;;;;;2.73;1.70;;;23.80;99.90;;;;;;8236752;28;20196;-64
2023/07/31 10:34:40;;;;;;;3.67;1.73;;;23.70;99.90;;;;;;8231934;28;20254;-66
2023/07/31 10:38:41;;;;;;;2.23;1.70;;;23.30;99.90;;;;;;8240658;28;20195;-60
2023/07/31 10:42:55;;;;;;;3.73;1.60;;;23.60;99.90;;;;;;8236508;28;20274;-63
2023/07/31 10:46:55;;;;;;;2.53;1.50;;;24.00;99.90;;;;;;8237685;28;20251;-63
2023/07/31 10:50:56;;;;;;;2.60;1.40;;;24.30;99.90;;;;;;8243957;28;20323;-63
2023/07/31 10:55:16;;;;;;;3.17;1.63;;;24.30;99.90;;;;;;8239597;28;20192;-63
2023/07/31 10:59:17;;;;;;;3.47;1.53;;;24.20;99.90;;;;;;8239975;28;20180;-60
2023/07/31 11:03:21;;;;;;;3.93;1.77;;;24.30;99.90;;;;;;8233985;28;20220;-64
2023/07/31 11:07:22;;;;;;;3.80;1.60;;;24.10;99.90;;;;;;8235447;28;20331;-61
2023/07/31 11:11:23;;;;;;;3.13;1.50;;;24.10;99.90;;;;;;8229580;28;20409;-64
2023/07/31 11:15:27;;;;;;;3.50;1.43;;;24.00;99.90;;;;;;8231223;28;20203;-63
2023/07/31 11:19:27;;;;;;;2.23;1.47;;;24.20;99.90;;;;;;8230021;28;20187;-63
2023/07/31 11:23:28;;;;;;;2.30;1.57;;;24.00;99.90;;;;;;8230965;28;20218;-64
2023/07/31 11:27:29;;;;;;;2.27;1.30;;;24.00;99.90;;;;;;8239876;28;20191;-64
2023/07/31 11:31:30;;;;;;;4.63;1.63;;;24.00;99.90;;;;;;8229154;28;20331;-65
2023/07/31 11:35:36;;;;;;;4.30;1.77;;;24.10;99.90;;;;;;8238225;28;20188;-62
2023/07/31 11:39:36;;;;;;;4.80;1.57;;;24.20;99.90;;;;;;8239974;28;20191;-62
2023/07/31 11:43:37;;;;;;;3.30;2.00;;;24.20;99.90;;;;;;8239866;28;20192;-62
2023/07/31 11:47:38;;;;;;;3.60;1.80;;;23.90;99.90;;;;;;8239261;28;20187;-60
2023/07/31 11:51:39;;;;;;;3.73;2.10;;;23.50;99.90;;;;;;8237545;28;20211;-65
2023/07/31 11:55:40;;;;;;;2.03;1.50;;;23.50;99.90;;;;;;8236129;28;20279;-64
2023/07/31 11:59:41;;;;;;;5.90;2.17;;;23.70;99.90;;;;;;8226280;28;20242;-64
2023/07/31 12:03:42;;;;;;;3.87;1.70;;;23.80;99.90;;;;;;8233544;28;20219;-65
2023/07/31 12:07:48;;;;;;;4.80;2.00;;;24.00;99.90;;;;;;8230706;28;20196;-65
2023/07/31 12:11:49;;;;;;;3.43;1.90;;;24.00;99.90;;;;;;8237848;28;20291;-66
2023/07/31 12:15:56;;;;;;;4.30;1.50;;;23.80;99.90;;;;;;8232112;28;20200;-66
2023/07/31 12:19:56;;;;;;;2.03;1.77;;;23.80;99.90;;;;;;8241323;28;20228;-66
2023/07/31 12:24:02;;;;;;;2.90;1.70;;;24.00;99.90;;;;;;8237344;28;20227;-64
2023/07/31 12:28:11;;;;;;;5.93;1.93;;;24.20;99.90;;;;;;8237097;28;20279;-65
2023/07/31 12:32:23;;;;;;;2.90;1.70;;;24.40;99.90;;;;;;8232226;28;20226;-66
2023/07/31 12:36:24;;;;;;;5.77;2.00;;;24.20;99.90;;;;;;8229507;28;20183;-67
2023/07/31 12:40:25;;;;;;;2.77;1.70;;;24.00;99.90;;;;;;8235992;28;20192;-66
2023/07/31 12:44:26;;;;;;;4.23;1.53;;;24.00;99.90;;;;;;8232704;28;20196;-66
2023/07/31 12:48:26;;;;;;;5.23;1.83;;;24.20;99.90;;;;;;8226076;28;20199;-65
2023/07/31 12:52:27;;;;;;;2.80;1.83;;;24.20;99.90;;;;;;8228558;28;20282;-66
2023/07/31 12:56:28;;;;;;;3.40;1.80;;;24.40;99.90;;;;;;8230167;28;20620;-65
2023/07/31 13:00:29;;;;;;;3.57;1.80;;;24.30;99.90;;;;;;8231530;28;20196;-65
2023/07/31 13:04:30;;;;;;;2.90;1.80;;;24.00;99.90;;;;;;8232213;28;20257;-66
2023/07/31 13:08:30;;;;;;;3.03;1.97;;;23.90;99.90;;;;;;8239143;28;20286;-64
2023/07/31 13:12:31;;;;;;;3.20;1.80;;;24.30;99.90;;;;;;8243487;28;20215;-67
2023/07/31 13:16:32;;;;;;;4.90;1.77;;;24.60;99.90;;;;;;8244352;28;20285;-66
2023/07/31 13:20:33;;;;;;;4.17;1.87;;;24.80;99.90;;;;;;8238901;28;20199;-66
2023/07/31 13:24:33;;;;;;;2.27;1.80;;;25.00;99.90;;;;;;8244652;28;20196;-67
2023/07/31 13:28:34;;;;;;;3.20;1.90;;;24.70;99.90;;;;;;8245128;28;20198;-65
2023/07/31 13:32:38;;;;;;;5.37;1.93;;;24.40;99.90;;;;;;8238103;28;20223;-65
2023/07/31 13:36:39;;;;;;;3.90;2.20;;;24.40;99.90;;;;;;8244725;28;20615;-66
2023/07/31 13:40:39;;;;;;;3.38;1.80;;;24.50;99.90;;;;;;8246889;28;20704;-65
2023/07/31 13:44:41;;;;;;;3.85;1.65;;;24.70;99.90;;;;;;8242199;28;20310;-66
2023/07/31 13:48:42;;;;;;;5.07;1.80;;;24.80;99.90;;;;;;8244809;28;20201;-64
2023/07/31 13:52:43;;;;;;;4.13;2.28;;;25.10;99.90;;;;;;8244313;28;20218;-66
2023/07/31 13:56:45;;;;;;;3.33;1.98;;;25.10;99.90;;;;;;8242405;28;20193;-66
2023/07/31 14:00:46;;;;;;;4.50;2.22;;;24.80;99.90;;;;;;8243267;28;20188;-67
2023/07/31 14:04:46;;;;;;;3.15;2.00;;;24.50;99.90;;;;;;8240844;28;20195;-66
2023/07/31 14:08:47;;;;;;;4.57;2.17;;;24.70;99.90;;;;;;8232855;28;20208;-64
2023/07/31 14:12:48;;;;;;;2.15;1.65;;;24.60;99.90;;;;;;8246607;28;20220;-64
2023/07/31 14:16:49;;;;;;;3.53;1.67;;;24.40;99.90;;;;;;8243779;28;20218;-65
2023/07/31 14:20:49;;;;;;;5.20;2.03;;;24.30;99.90;;;;;;8244400;28;20196;-64
2023/07/31 14:24:50;;;;;;;3.77;1.70;;;24.20;99.90;;;;;;8241918;28;20194;-63
2023/07/31 14:28:51;;;;;;;3.77;1.80;;;24.10;99.90;;;;;;8242304;28;20207;-64
2023/07/31 14:32:52;;;;;;;2.60;1.50;;;23.90;99.90;;;;;;8241656;28;20534;-62
2023/07/31 14:36:52;;;;;;;2.90;1.70;;;23.70;99.90;;;;;;8245866;28;20203;-63
2023/07/31 14:40:53;;;;;;;2.13;1.70;;;23.60;99.90;;;;;;8233747;28;20187;-62
2023/07/31 14:44:54;;;;;;;3.17;2.07;;;23.60;99.90;;;;;;8241510;28;20277;-62
2023/07/31 14:48:55;;;;;;;4.77;1.73;;;23.80;99.90;;;;;;8246568;28;20188;-64
2023/07/31 14:52:56;;;;;;;2.33;1.90;;;23.90;99.90;;;;;;8243688;28;20214;-62
2023/07/31 14:56:56;;;;;;;2.87;1.70;;;24.10;99.90;;;;;;8247356;28;20194;-64
2023/07/31 15:00:57;;;;;;;3.13;1.40;;;24.00;99.90;;;;;;8234076;28;20215;-63
2023/07/31 15:04:58;;;;;;;2.30;1.67;;;24.20;99.90;;;;;;8242164;28;20195;-63
2023/07/31 15:08:58;;;;;;;3.00;1.97;;;24.60;99.90;;;;;;8236416;28;20207;-63
2023/07/31 15:13:01;;;;;;;1.87;1.47;;;24.80;99.90;;;;;;8233823;28;20289;-61
2023/07/31 15:17:01;;;;;;;4.20;2.00;;;24.50;99.90;;;;;;8235801;28;20517;-63
2023/07/31 15:21:02;;;;;;;3.33;1.70;;;24.30;99.90;;;;;;8233583;28;20345;-65
2023/07/31 15:25:03;;;;;;;3.13;1.60;;;24.30;99.90;;;;;;8225034;28;20188;-66
2023/07/31 15:29:09;;;;;;;5.27;1.73;;;24.30;99.90;;;;;;8231462;28;20223;-65
2023/07/31 15:33:09;;;;;;;3.13;1.57;;;24.20;99.90;;;;;;8231787;28;20215;-67
2023/07/31 15:37:10;;;;;;;4.03;2.03;;;24.10;99.90;;;;;;8224919;28;20192;-66
2023/07/31 15:41:11;;;;;;;3.33;1.50;;;24.20;99.90;;;;;;8235283;28;20286;-66
2023/07/31 15:45:12;;;;;;;3.23;1.23;;;24.30;99.90;;;;;;8220728;28;20196;-68
2023/07/31 15:49:13;;;;;;;2.80;1.33;;;24.50;99.90;;;;;;8227024;28;20322;-67
2023/07/31 15:53:17;;;;;;;2.13;1.40;;;24.40;99.90;;;;;;8233527;28;20241;-64
2023/07/31 15:57:17;;;;;;;2.43;1.70;;;24.10;99.90;;;;;;8234218;28;20222;-66
2023/07/31 16:01:18;;;;;;;2.97;1.63;;;23.80;99.90;;;;;;8231012;28;20204;-63
2023/07/31 16:05:19;;;;;;;3.27;1.77;;;23.40;99.90;;;;;;8233061;28;20196;-66
2023/07/31 16:09:20;;;;;;;3.03;1.70;;;23.10;99.90;;;;;;8226868;28;20618;-67
2023/07/31 16:13:21;;;;;;;1.77;1.40;;;22.90;99.90;;;;;;8237307;28;20219;-66
2023/07/31 16:17:22;;;;;;;5.00;1.57;;;22.70;99.90;;;;;;8236254;28;20246;-65
2023/07/31 16:21:22;;;;;;;2.27;1.60;;;22.50;99.90;;;;;;8246437;28;20199;-66
2023/07/31 16:25:23;;;;;;;2.33;1.70;;;22.40;99.90;;;;;;8239985;28;20195;-65
2023/07/31 16:29:24;;;;;;;3.30;1.73;;;22.40;99.90;;;;;;8237179;28;20636;-66
2023/07/31 16:33:25;;;;;;;5.33;1.93;;;22.40;99.90;;;;;;8247260;28;20242;-68
2023/07/31 16:37:25;;;;;;;3.63;1.33;;;22.40;99.90;;;;;;8245137;28;20193;-69
2023/07/31 16:41:26;;;;;;;3.53;1.87;;;22.30;99.90;;;;;;8240066;28;20280;-68
2023/07/31 16:45:27;;;;;;;2.13;1.43;;;22.30;99.90;;;;;;8243612;28;20270;-66
2023/07/31 16:49:27;;;;;;;2.17;1.40;;;22.30;99.90;;;;;;8243577;28;20505;-68
2023/07/31 16:53:28;;;;;;;3.90;1.60;;;22.30;99.90;;;;;;8245759;28;20414;-71
2023/07/31 16:57:29;;;;;;;3.07;1.77;;;22.30;99.90;;;;;;8244776;28;20195;-67
2023/07/31 17:01:32;;;;;;;2.57;1.60;;;22.20;99.90;;;;;;8238160;28;20238;-67
2023/07/31 17:05:32;;;;;;;2.07;1.33;;;22.20;99.90;;;;;;8245752;28;20183;-66
2023/07/31 17:09:34;;;;;;;4.43;1.90;;;22.10;99.90;;;;;;8241524;28;20207;-65
2023/07/31 17:13:35;;;;;;;2.50;1.73;;;22.00;99.90;;;;;;8240362;28;20212;-67
2023/07/31 17:17:35;;;;;;;3.53;2.00;;;21.90;99.90;;;;;;8243954;28;20200;-66
2023/07/31 17:21:36;;;;;;;2.73;1.60;;;21.90;99.90;;;;;;8232715;28;20187;-66
2023/07/31 17:25:40;;;;;;;1.73;1.40;;;21.80;99.90;;;;;;8236385;28;20265;-65
2023/07/31 17:29:41;;;;;;;3.17;1.80;;;21.80;99.90;;;;;;8238568;28;20192;-65
2023/07/31 17:33:42;;;;;;;2.40;1.40;;;21.80;99.90;;;;;;8233916;28;20220;-64
2023/07/31 17:37:43;;;;;;;2.80;1.43;;;21.80;99.90;;;;;;8243118;28;20192;-65
2023/07/31 17:41:43;;;;;;;3.53;1.70;;;21.80;99.90;;;;;;8247499;28;20221;-65
2023/07/31 17:45:44;;;;;;;2.67;1.60;;;21.80;99.90;;;;;;8239328;28;20296;-69
2023/07/31 17:49:45;;;;;;;2.53;1.47;;;21.80;99.90;;;;;;8240527;28;20280;-65
2023/07/31 17:53:45;;;;;;;2.50;1.20;;;21.80;99.90;;;;;;8244444;28;20302;-66
2023/07/31 17:57:46;;;;;;;4.93;1.70;;;21.70;99.90;;;;;;8246481;28;20652;-65
2023/07/31 18:01:47;;;;;;;2.33;1.33;;;21.70;99.90;;;;;;8240885;28;20197;-65
2023/07/31 18:05:48;;;;;;;4.37;1.50;;;21.60;99.90;;;;;;8244891;28;20211;-66
2023/07/31 18:09:49;;;;;;;2.73;1.30;;;21.50;99.90;;;;;;8242675;28;20211;-65
2023/07/31 18:13:50;;;;;;;1.90;1.47;;;21.40;99.90;;;;;;8241452;28;20209;-65
2023/07/31 18:17:50;;;;;;;2.87;1.37;;;21.30;99.90;;;;;;8241872;28;20196;-66
2023/07/31 18:21:51;;;;;;;3.47;1.50;;;21.30;99.90;;;;;;8243417;28;20180;-67
2023/07/31 18:25:52;;;;;;;2.27;1.90;;;21.20;99.90;;;;;;8238617;28;20270;-66
2023/07/31 18:29:53;;;;;;;2.00;1.30;;;21.20;99.90;;;;;;8244430;28;20248;-65
2023/07/31 18:33:53;;;;;;;2.40;1.53;;;21.20;99.90;;;;;;8240985;28;20208;-64
2023/07/31 18:37:54;;;;;;;1.47;1.20;;;21.10;99.90;;;;;;8244827;28;20188;-67
2023/07/31 18:41:55;;;;;;;1.93;1.30;;;21.10;99.90;;;;;;8234510;28;20191;-68
2023/07/31 18:45:56;;;;;;;1.40;1.03;;;21.00;99.90;;;;;;8241957;28;20256;-66
2023/07/31 18:49:56;;;;;;;2.60;1.50;;;20.90;99.90;;;;;;8241350;28;20187;-61
2023/07/31 18:53:57;;;;;;;2.10;1.40;;;20.80;99.90;;;;;;8239974;28;20218;-62
2023/07/31 18:57:58;;;;;;;3.63;1.50;;;20.80;99.90;;;;;;8244005;28;20295;-60
2023/07/31 19:01:59;;;;;;;2.53;1.60;;;20.70;99.90;;;;;;8242777;28;20273;-60
2023/07/31 19:06:04;;;;;;;2.63;1.50;;;20.60;99.90;;;;;;8236185;28;20199;-64
2023/07/31 19:10:05;;;;;;;3.00;1.60;;;20.50;99.90;;;;;;8243498;28;20207;-60
2023/07/31 19:14:06;;;;;;;3.00;1.80;;;20.50;99.90;;;;;;8236227;28;20191;-65
2023/07/31 19:18:06;;;;;;;2.53;1.60;;;20.50;99.90;;;;;;8233101;28;20208;-59
2023/07/31 19:22:08;;;;;;;3.03;1.63;;;20.40;99.90;;;;;;8236263;28;20308;-63
2023/07/31 19:26:09;;;;;;;2.53;1.53;;;20.40;99.90;;;;;;8228560;28;20224;-60
2023/07/31 19:30:11;;;;;;;2.93;1.73;;;20.30;99.90;;;;;;8240679;28;20192;-60
2023/07/31 19:34:12;;;;;;;1.87;1.10;;;20.30;99.90;;;;;;8230821;28;20187;-60
2023/07/31 19:38:13;;;;;;;2.83;1.90;;;20.30;99.90;;;;;;8239427;28;20191;-62
2023/07/31 19:42:14;;;;;;;3.27;1.87;;;20.30;99.90;;;;;;8239091;28;20250;-60
2023/07/31 19:46:15;;;;;;;3.57;1.90;;;20.20;99.90;;;;;;8234394;28;20192;-60
2023/07/31 19:50:16;;;;;;;2.40;2.00;;;20.20;99.90;;;;;;8239356;28;20239;-60
2023/07/31 19:54:17;;;;;;;4.03;1.70;;;20.20;99.90;;;;;;8237235;28;20187;-60
2023/07/31 19:58:17;;;;;;;2.33;1.80;;;20.30;99.90;;;;;;8243563;28;20187;-61
2023/07/31 20:02:18;;;;;;;2.50;1.73;;;20.30;99.90;;;;;;8240904;28;20220;-61
2023/07/31 20:06:19;;;;;;;7.27;2.20;;;20.30;99.90;;;;;;8242858;28;20192;-61
2023/07/31 20:10:20;;;;;;;3.20;1.90;;;20.30;99.90;;;;;;8242742;28;20253;-60
2023/07/31 20:14:21;;;;;;;2.53;1.60;;;20.30;99.90;;;;;;8244418;28;20195;-60
2023/07/31 20:18:21;;;;;;;4.93;2.00;;;20.20;99.90;;;;;;8248613;28;20210;-60
2023/07/31 20:22:23;;;;;;;4.10;2.10;;;20.20;99.90;;;;;;8238354;28;20195;-60
2023/07/31 20:26:23;;;;;;;2.93;1.70;;;20.10;99.90;;;;;;8241503;28;20587;-62
2023/07/31 20:30:24;;;;;;;2.30;1.37;;;20.10;99.90;;;;;;8242852;28;20534;-62
2023/07/31 20:34:25;;;;;;;2.33;1.73;;;20.00;1.00;;;;;;8244453;28;20191;-59
2023/07/31 20:38:26;;;;;;;1.97;1.57;;;20.00;1.00;;;;;;8247669;28;20183;-60
2023/07/31 20:42:27;;;;;;;2.83;1.80;;;19.90;1.00;;;;;;8242834;28;20523;-61
2023/07/31 20:46:28;;;;;;;2.07;1.80;;;19.90;1.00;;;;;;8243247;28;20191;-61
2023/07/31 20:50:31;;;;;;;2.23;1.40;;;19.80;1.00;;;;;;8242515;28;20225;-62
2023/07/31 20:54:32;;;;;;;2.93;1.90;;;19.80;1.00;;;;;;8245809;28;20184;-61
2023/07/31 20:58:33;;;;;;;2.23;1.50;;;19.80;1.00;;;;;;8250681;28;20618;-62